Time;durP1;ratioP1;P1;durP2;ratioP2;P2;SDS_P1;SDS_P2;PMS_P1;PMS_P2;Temp;Humidity;BMP_temperature;BMP_pressure;BME280_temperature;BME280_humidity;BME280_pressure;Samples;Min_cycle;Max_cycle;Signal;HPM_P1;HPM_P2
2023/12/05 00:01:18;;;;;;;5.10;3.90;;;2.80;99.90;;;;;;5097796;28;20434;-40
2023/12/05 00:03:43;;;;;;;7.37;4.73;;;2.80;99.90;;;;;;5100282;28;20823;-40
2023/12/05 00:06:12;;;;;;;5.90;4.37;;;2.80;99.90;;;;;;5120608;28;20187;-41
2023/12/05 00:08:37;;;;;;;4.50;3.93;;;2.80;1.00;;;;;;5120074;28;20551;-41
2023/12/05 00:11:07;;;;;;;6.13;4.63;;;2.90;1.00;;;;;;5120575;28;20524;-42
2023/12/05 00:13:33;;;;;;;5.07;3.90;;;2.90;1.00;;;;;;5121265;28;20207;-40
2023/12/05 00:15:58;;;;;;;4.13;3.30;;;3.00;1.00;;;;;;5119893;28;20413;-40
2023/12/05 00:18:24;;;;;;;4.33;3.77;;;3.00;99.90;;;;;;5120709;28;20456;-40
2023/12/05 00:20:51;;;;;;;4.70;3.90;;;3.00;1.00;;;;;;5120328;28;20252;-41
2023/12/05 00:23:16;;;;;;;4.83;4.33;;;3.00;1.00;;;;;;5120301;28;20757;-40
2023/12/05 00:25:43;;;;;;;4.80;4.30;;;3.00;99.90;;;;;;5120293;28;20433;-40
2023/12/05 00:28:08;;;;;;;4.73;3.80;;;3.00;1.00;;;;;;5120301;28;20629;-42
2023/12/05 00:30:34;;;;;;;4.43;3.40;;;3.10;1.00;;;;;;5120188;28;20401;-40
2023/12/05 00:33:00;;;;;;;4.53;3.80;;;3.10;1.00;;;;;;5119635;28;20211;-40
2023/12/05 00:35:26;;;;;;;4.67;4.13;;;3.10;1.00;;;;;;5118895;28;20312;-40
2023/12/05 00:37:52;;;;;;;3.87;3.50;;;3.10;1.00;;;;;;5119695;28;20421;-41
2023/12/05 00:40:18;;;;;;;4.63;4.17;;;3.10;1.00;;;;;;5120455;28;20164;-41
2023/12/05 00:42:43;;;;;;;3.53;3.23;;;3.20;99.90;;;;;;5102108;28;20180;-41
2023/12/05 00:45:12;;;;;;;4.47;3.70;;;3.20;1.00;;;;;;5118897;28;20187;-41
2023/12/05 00:47:38;;;;;;;4.60;3.80;;;3.10;1.00;;;;;;5119978;28;20207;-41
2023/12/05 00:50:05;;;;;;;5.20;4.03;;;3.10;1.00;;;;;;5120091;28;20520;-41
2023/12/05 00:52:30;;;;;;;4.63;4.00;;;3.10;1.00;;;;;;5120156;28;20808;-41
2023/12/05 00:54:56;;;;;;;4.60;4.20;;;3.10;1.00;;;;;;5102563;28;20409;-41
2023/12/05 00:57:21;;;;;;;4.43;3.70;;;3.20;1.00;;;;;;5120464;28;20251;-40
2023/12/05 00:59:47;;;;;;;5.20;3.90;;;3.30;1.00;;;;;;5120116;28;20286;-42
2023/12/05 01:02:13;;;;;;;3.93;3.63;;;3.20;1.00;;;;;;5102057;28;20172;-44
2023/12/05 01:04:38;;;;;;;4.50;4.10;;;3.30;1.00;;;;;;5120619;28;20429;-42
2023/12/05 01:07:04;;;;;;;4.10;3.70;;;3.20;1.00;;;;;;5119979;28;20228;-43
2023/12/05 01:09:30;;;;;;;5.70;4.20;;;3.30;1.00;;;;;;5119469;28;20520;-43
2023/12/05 01:11:56;;;;;;;4.93;4.33;;;3.30;1.00;;;;;;5119278;28;20208;-42
2023/12/05 01:14:21;;;;;;;6.23;4.50;;;3.30;1.00;;;;;;5117994;28;20240;-44
2023/12/05 01:16:47;;;;;;;6.80;4.30;;;3.40;99.90;;;;;;5118409;28;20268;-40
2023/12/05 01:19:13;;;;;;;5.23;4.27;;;3.40;99.90;;;;;;5117714;28;20164;-47
2023/12/05 01:21:39;;;;;;;6.10;4.90;;;3.30;1.00;;;;;;5101135;28;20175;-42
2023/12/05 01:24:04;;;;;;;5.00;4.30;;;3.30;1.00;;;;;;5118471;28;20422;-41
2023/12/05 01:26:30;;;;;;;5.30;4.80;;;3.30;99.90;;;;;;5119051;28;20197;-42
2023/12/05 01:28:55;;;;;;;5.90;4.90;;;3.30;1.00;;;;;;5118882;28;20191;-49
2023/12/05 01:31:21;;;;;;;5.43;4.93;;;3.40;99.90;;;;;;5118938;28;20441;-40
2023/12/05 01:33:47;;;;;;;6.50;5.30;;;3.30;99.90;;;;;;5100271;28;20232;-42
2023/12/05 01:36:13;;;;;;;6.23;4.93;;;3.30;99.90;;;;;;5119359;28;20266;-38
2023/12/05 01:38:39;;;;;;;6.03;5.10;;;3.30;99.90;;;;;;5118265;28;20436;-42
2023/12/05 01:41:05;;;;;;;6.50;5.80;;;3.30;1.00;;;;;;5118655;28;20172;-40
2023/12/05 01:43:31;;;;;;;7.23;5.30;;;3.30;99.90;;;;;;5118576;28;20409;-39
2023/12/05 01:45:58;;;;;;;6.23;5.40;;;3.30;99.90;;;;;;5118635;28;20420;-39
2023/12/05 01:48:23;;;;;;;6.07;5.10;;;3.20;99.90;;;;;;5099790;28;20187;-42
2023/12/05 01:50:51;;;;;;;6.23;5.40;;;3.20;99.90;;;;;;5118339;28;20437;-43
2023/12/05 01:53:17;;;;;;;7.23;5.87;;;3.20;1.00;;;;;;5099237;28;20237;-42
2023/12/05 01:55:43;;;;;;;7.90;5.80;;;3.10;1.00;;;;;;5117500;28;20437;-41
2023/12/05 01:58:10;;;;;;;5.57;5.00;;;3.20;1.00;;;;;;5117815;28;20681;-39
2023/12/05 02:00:39;;;;;;;6.37;5.70;;;3.10;1.00;;;;;;5099117;28;20187;-44
2023/12/05 02:03:05;;;;;;;9.30;6.87;;;3.10;1.00;;;;;;5117883;28;20433;-40
2023/12/05 02:05:30;;;;;;;8.93;6.67;;;3.10;99.90;;;;;;5118095;28;20440;-42
2023/12/05 02:07:57;;;;;;;7.33;5.90;;;3.00;1.00;;;;;;5116725;28;20199;-40
2023/12/05 02:10:23;;;;;;;7.53;5.90;;;3.00;1.00;;;;;;5117678;28;20172;-40
2023/12/05 02:12:49;;;;;;;7.87;6.40;;;3.00;1.00;;;;;;5117754;28;20480;-39
2023/12/05 02:15:14;;;;;;;8.07;6.43;;;3.00;1.00;;;;;;5117783;28;20858;-40
2023/12/05 02:17:47;;;;;;;7.33;6.50;;;3.00;1.00;;;;;;5099641;28;20241;-42
2023/12/05 02:20:40;;;;;;;6.40;5.63;;;3.10;1.00;;;;;;5099896;28;20510;-41
2023/12/05 02:23:44;;;;;;;6.00;5.40;;;3.10;1.00;;;;;;5100002;28;20490;-42
2023/12/05 02:26:51;;;;;;;6.73;5.53;;;3.10;1.00;;;;;;5015210;28;20441;-39
2023/12/05 02:29:17;;;;;;;7.33;5.90;;;3.20;1.00;;;;;;5117591;28;20548;-43
2023/12/05 02:31:43;;;;;;;6.90;5.60;;;3.20;1.00;;;;;;5116737;28;20520;-43
2023/12/05 02:34:09;;;;;;;6.97;5.60;;;3.20;1.00;;;;;;5116387;28;20982;-40
2023/12/05 02:37:05;;;;;;;6.87;6.13;;;3.20;1.00;;;;;;5116948;28;20385;-40
2023/12/05 02:39:54;;;;;;;6.17;5.57;;;3.20;1.00;;;;;;5117147;28;20214;-40
2023/12/05 02:42:23;;;;;;;6.50;4.93;;;3.20;1.00;;;;;;5099151;28;20452;-41
2023/12/05 02:44:51;;;;;;;6.03;5.40;;;3.20;99.90;;;;;;5116653;28;20430;-40
2023/12/05 02:47:19;;;;;;;5.40;4.60;;;3.30;99.90;;;;;;5115995;28;20433;-40
2023/12/05 02:49:45;;;;;;;6.40;5.30;;;3.30;99.90;;;;;;5099103;28;20425;-40
2023/12/05 02:52:11;;;;;;;6.73;5.43;;;3.30;99.90;;;;;;5117137;28;20469;-39
2023/12/05 02:54:37;;;;;;;5.97;5.03;;;3.30;99.90;;;;;;5099041;28;20503;-40
2023/12/05 02:57:02;;;;;;;6.40;5.30;;;3.30;99.90;;;;;;5116227;28;20184;-40
2023/12/05 02:59:28;;;;;;;7.47;5.50;;;3.20;99.90;;;;;;5116949;28;20188;-41
2023/12/05 03:01:53;;;;;;;6.03;5.40;;;3.20;99.90;;;;;;5116371;28;20307;-39
2023/12/05 03:04:19;;;;;;;6.20;5.27;;;3.30;99.90;;;;;;5116283;28;20225;-40
2023/12/05 03:06:45;;;;;;;7.13;5.43;;;3.30;1.00;;;;;;5116736;28;20258;-39
2023/12/05 03:09:10;;;;;;;7.60;6.03;;;3.20;1.00;;;;;;5117037;28;20184;-39
2023/12/05 03:11:36;;;;;;;8.07;6.30;;;3.20;1.00;;;;;;5117121;28;20198;-38
2023/12/05 03:14:03;;;;;;;9.10;7.27;;;3.20;1.00;;;;;;5116538;28;20492;-39
2023/12/05 03:16:29;;;;;;;9.10;6.40;;;3.20;1.00;;;;;;5116044;28;20239;-39
2023/12/05 03:18:55;;;;;;;10.03;7.30;;;3.10;1.00;;;;;;5116312;28;20955;-40
2023/12/05 03:21:20;;;;;;;8.03;6.30;;;3.10;1.00;;;;;;5116995;28;20210;-42
2023/12/05 03:23:46;;;;;;;8.93;7.70;;;3.00;1.00;;;;;;5116775;28;20437;-41
2023/12/05 03:26:22;;;;;;;8.43;7.20;;;3.10;1.00;;;;;;5117116;28;20281;-41
2023/12/05 03:28:48;;;;;;;9.47;7.57;;;3.10;1.00;;;;;;5116703;28;20180;-40
2023/12/05 03:31:14;;;;;;;10.07;7.00;;;3.10;1.00;;;;;;5116772;28;20475;-41
2023/12/05 03:33:40;;;;;;;9.07;7.07;;;3.10;1.00;;;;;;5116305;28;20489;-40
2023/12/05 03:36:06;;;;;;;10.23;8.17;;;3.10;1.00;;;;;;5116632;28;20641;-40
2023/12/05 03:38:31;;;;;;;8.90;7.67;;;3.10;1.00;;;;;;5102315;28;20179;-39
2023/12/05 03:40:57;;;;;;;11.47;7.93;;;3.10;1.00;;;;;;5120781;28;20528;-42
2023/12/05 03:43:23;;;;;;;12.63;7.97;;;3.10;1.00;;;;;;5119684;28;20175;-42
2023/12/05 03:45:48;;;;;;;9.73;7.77;;;3.10;1.00;;;;;;5119400;28;20475;-40
2023/12/05 03:48:14;;;;;;;9.40;6.70;;;3.10;1.00;;;;;;5119767;28;20527;-39
2023/12/05 03:50:40;;;;;;;8.60;7.43;;;3.10;1.00;;;;;;5120486;28;20562;-41
2023/12/05 03:53:05;;;;;;;8.60;6.67;;;3.10;1.00;;;;;;5102199;28;20203;-40
2023/12/05 03:55:34;;;;;;;10.40;8.07;;;3.10;1.00;;;;;;5120652;28;20510;-40
2023/12/05 03:58:01;;;;;;;9.80;7.00;;;3.10;1.00;;;;;;5120686;28;20172;-40
2023/12/05 04:00:26;;;;;;;9.47;6.30;;;3.10;1.00;;;;;;5119837;28;20819;-40
2023/12/05 04:02:52;;;;;;;8.93;6.20;;;3.10;1.00;;;;;;5120673;28;20429;-39
2023/12/05 04:05:18;;;;;;;7.43;6.57;;;3.10;1.00;;;;;;5118532;28;20292;-38
2023/12/05 04:07:44;;;;;;;11.03;6.30;;;3.10;1.00;;;;;;5117839;28;20190;-41
2023/12/05 04:10:10;;;;;;;8.50;6.13;;;3.10;1.00;;;;;;5118665;28;20764;-40
2023/12/05 04:12:37;;;;;;;7.17;5.40;;;3.10;1.00;;;;;;5117885;28;20529;-40
2023/12/05 04:15:04;;;;;;;7.27;5.83;;;3.10;1.00;;;;;;5118593;28;20176;-44
2023/12/05 04:17:30;;;;;;;9.37;5.13;;;3.10;1.00;;;;;;5118171;28;20789;-40
2023/12/05 04:19:55;;;;;;;6.80;5.10;;;3.10;1.00;;;;;;5118778;28;20440;-40
2023/12/05 04:22:21;;;;;;;6.10;4.87;;;3.10;1.00;;;;;;5119657;28;20243;-40
2023/12/05 04:24:47;;;;;;;6.37;4.97;;;3.20;1.00;;;;;;5118675;28;20176;-41
2023/12/05 04:27:12;;;;;;;5.37;4.80;;;3.20;1.00;;;;;;5118488;28;20175;-39
2023/12/05 04:29:38;;;;;;;8.37;5.03;;;3.20;1.00;;;;;;5118625;28;20179;-39
2023/12/05 04:32:04;;;;;;;6.33;4.27;;;3.20;1.00;;;;;;5118368;28;20210;-39
2023/12/05 04:34:30;;;;;;;6.37;5.30;;;3.30;1.00;;;;;;5118628;28;20461;-40
2023/12/05 04:36:56;;;;;;;6.20;4.67;;;3.30;1.00;;;;;;5118440;28;20263;-39
2023/12/05 04:39:21;;;;;;;7.10;4.27;;;3.30;1.00;;;;;;5119026;28;20187;-41
2023/12/05 04:41:47;;;;;;;5.90;4.90;;;3.30;1.00;;;;;;5118426;28;20578;-40
2023/12/05 04:44:12;;;;;;;6.80;5.47;;;3.30;1.00;;;;;;5118075;28;20210;-40
2023/12/05 04:46:38;;;;;;;4.80;4.30;;;3.40;1.00;;;;;;5117872;28;20210;-42
2023/12/05 04:49:05;;;;;;;5.70;4.73;;;3.50;1.00;;;;;;5116888;28;20168;-41
2023/12/05 04:51:31;;;;;;;4.90;4.20;;;3.40;1.00;;;;;;5117409;28;20408;-39
2023/12/05 04:53:56;;;;;;;4.70;3.67;;;3.40;1.00;;;;;;5098372;28;20894;-43
2023/12/05 04:56:22;;;;;;;6.13;4.47;;;3.50;1.00;;;;;;5117766;28;20179;-39
2023/12/05 04:58:48;;;;;;;7.07;4.73;;;3.40;1.00;;;;;;5119179;28;20175;-43
2023/12/05 05:01:14;;;;;;;6.33;4.33;;;3.40;1.00;;;;;;5119033;28;20238;-40
2023/12/05 05:03:40;;;;;;;5.10;4.60;;;3.40;1.00;;;;;;5118458;28;20737;-39
2023/12/05 05:06:05;;;;;;;6.43;4.30;;;3.50;1.00;;;;;;5082300;28;20518;-40
2023/12/05 05:08:31;;;;;;;6.10;3.87;;;3.50;1.00;;;;;;5118001;28;20203;-39
2023/12/05 05:10:57;;;;;;;4.93;4.13;;;3.50;1.00;;;;;;5118384;28;20172;-39
2023/12/05 05:13:22;;;;;;;4.10;3.27;;;3.60;1.00;;;;;;5115645;28;20195;-42
2023/12/05 05:15:48;;;;;;;4.80;3.87;;;3.70;1.00;;;;;;5114593;28;20213;-38
2023/12/05 05:18:13;;;;;;;6.30;4.23;;;3.70;99.90;;;;;;5098988;28;20507;-41
2023/12/05 05:20:39;;;;;;;5.53;4.13;;;3.60;99.90;;;;;;5117817;28;20182;-39
2023/12/05 05:23:04;;;;;;;4.23;3.83;;;3.70;99.90;;;;;;5117409;28;20188;-39
2023/12/05 05:25:30;;;;;;;4.73;4.23;;;3.60;99.90;;;;;;5116271;28;20356;-39
2023/12/05 05:27:56;;;;;;;8.90;4.17;;;3.60;99.90;;;;;;5115853;28;20588;-38
2023/12/05 05:30:21;;;;;;;6.83;4.60;;;3.60;99.90;;;;;;5116867;28;20240;-40
2023/12/05 05:32:47;;;;;;;4.87;4.20;;;3.60;99.90;;;;;;5115360;28;20214;-40
2023/12/05 05:35:13;;;;;;;5.53;4.40;;;3.60;1.00;;;;;;5114604;28;20231;-40
2023/12/05 05:37:38;;;;;;;5.67;5.07;;;3.50;1.00;;;;;;5113507;28;20180;-39
2023/12/05 05:40:06;;;;;;;6.77;4.73;;;3.60;99.90;;;;;;5113528;28;20160;-39
2023/12/05 05:42:32;;;;;;;5.33;4.40;;;3.60;99.90;;;;;;5114201;28;20362;-38
2023/12/05 05:44:57;;;;;;;6.20;4.87;;;3.60;99.90;;;;;;5112049;28;20444;-39
2023/12/05 05:47:24;;;;;;;9.23;4.80;;;3.40;1.00;;;;;;5111303;28;20502;-38
2023/12/05 05:49:49;;;;;;;6.10;4.70;;;3.40;1.00;;;;;;5110911;28;20533;-40
2023/12/05 05:52:15;;;;;;;6.03;4.90;;;3.40;1.00;;;;;;5109702;28;20461;-39
2023/12/05 05:54:41;;;;;;;6.53;4.43;;;3.40;1.00;;;;;;5109576;28;20314;-40
2023/12/05 05:57:06;;;;;;;6.47;4.93;;;3.40;1.00;;;;;;5108512;28;20453;-39
2023/12/05 05:59:32;;;;;;;8.60;5.43;;;3.30;1.00;;;;;;5108935;28;20608;-39
2023/12/05 06:01:58;;;;;;;10.13;5.20;;;3.30;1.00;;;;;;5107769;28;20176;-39
2023/12/05 06:04:23;;;;;;;5.80;4.13;;;3.30;1.00;;;;;;5106882;28;20598;-41
2023/12/05 06:06:49;;;;;;;7.30;4.87;;;3.20;1.00;;;;;;5093187;28;20232;-41
2023/12/05 06:09:15;;;;;;;5.50;4.20;;;3.20;1.00;;;;;;5112553;28;20190;-40
2023/12/05 06:11:42;;;;;;;8.73;4.87;;;3.20;1.00;;;;;;5110695;28;20616;-39
2023/12/05 06:14:07;;;;;;;9.03;4.60;;;3.20;1.00;;;;;;5108283;28;20215;-40
2023/12/05 06:16:33;;;;;;;5.00;4.30;;;3.20;1.00;;;;;;5109111;28;20687;-39
2023/12/05 06:18:58;;;;;;;8.03;4.27;;;3.10;1.00;;;;;;5107090;28;20160;-40
2023/12/05 06:21:24;;;;;;;6.60;4.53;;;3.10;1.00;;;;;;5108007;28;20172;-39
2023/12/05 06:23:50;;;;;;;5.40;4.30;;;3.20;1.00;;;;;;5105920;28;20175;-39
2023/12/05 06:26:15;;;;;;;8.40;3.77;;;3.10;1.00;;;;;;5109269;28;20180;-41
2023/12/05 06:28:41;;;;;;;4.17;3.73;;;3.10;1.00;;;;;;5108244;28;20694;-40
2023/12/05 06:31:08;;;;;;;4.93;4.20;;;3.20;1.00;;;;;;5110108;28;20406;-39
2023/12/05 06:33:33;;;;;;;4.60;4.10;;;3.10;1.00;;;;;;5111368;28;20199;-40
2023/12/05 06:35:59;;;;;;;4.67;4.10;;;3.10;1.00;;;;;;5112735;28;20468;-41
2023/12/05 06:38:25;;;;;;;5.33;3.90;;;3.10;1.00;;;;;;5112579;28;20256;-41
2023/12/05 06:40:50;;;;;;;5.60;4.10;;;3.00;1.00;;;;;;5112333;28;20233;-42
2023/12/05 06:43:16;;;;;;;5.20;4.57;;;3.00;1.00;;;;;;5114785;28;20182;-40
2023/12/05 06:45:42;;;;;;;9.77;4.23;;;3.00;1.00;;;;;;5114527;28;20180;-41
2023/12/05 06:48:07;;;;;;;6.03;3.20;;;3.00;1.00;;;;;;5097033;28;20650;-42
2023/12/05 06:50:33;;;;;;;3.90;3.50;;;3.00;1.00;;;;;;5113679;28;20319;-40
2023/12/05 06:52:59;;;;;;;6.60;3.50;;;3.00;1.00;;;;;;5112329;28;20307;-42
2023/12/05 06:55:26;;;;;;;5.13;3.70;;;3.10;1.00;;;;;;5113285;28;20171;-41
2023/12/05 06:57:51;;;;;;;5.63;3.40;;;3.10;99.90;;;;;;5112140;28;20409;-40
2023/12/05 07:00:18;;;;;;;6.30;2.73;;;3.10;99.90;;;;;;5112579;28;20418;-40
2023/12/05 07:02:44;;;;;;;3.20;2.90;;;3.20;99.90;;;;;;5112526;28;20443;-41
2023/12/05 07:05:10;;;;;;;6.47;3.70;;;3.20;99.90;;;;;;5113197;28;20435;-43
2023/12/05 07:07:35;;;;;;;5.77;2.77;;;3.20;99.90;;;;;;5112545;28;20203;-43
2023/12/05 07:10:02;;;;;;;6.93;3.57;;;3.30;99.90;;;;;;5093449;28;20186;-44
2023/12/05 07:12:28;;;;;;;5.63;3.93;;;3.70;1.00;;;;;;5110167;28;20203;-44
2023/12/05 07:14:54;;;;;;;3.53;2.90;;;4.30;1.00;;;;;;5111756;28;20693;-42
2023/12/05 07:17:19;;;;;;;2.73;2.30;;;4.80;1.00;;;;;;5114223;28;20849;-41
2023/12/05 07:19:45;;;;;;;4.50;2.50;;;4.60;92.70;;;;;;5113254;28;20183;-42
2023/12/05 07:22:12;;;;;;;3.17;2.60;;;4.40;24.90;;;;;;5112651;28;20553;-42
2023/12/05 07:24:37;;;;;;;3.10;2.50;;;4.20;45.90;;;;;;5113567;28;20176;-42
2023/12/05 07:27:03;;;;;;;4.53;3.13;;;4.00;96.20;;;;;;5114498;28;20613;-41
2023/12/05 07:29:29;;;;;;;2.87;2.37;;;3.90;99.90;;;;;;5114793;28;20184;-40
2023/12/05 07:31:54;;;;;;;4.37;2.60;;;3.80;99.90;;;;;;5111657;28;20207;-42
2023/12/05 07:34:20;;;;;;;3.30;3.00;;;3.70;99.90;;;;;;5096486;28;20254;-41
2023/12/05 07:36:46;;;;;;;4.83;3.00;;;3.70;99.90;;;;;;5114602;28;20554;-40
2023/12/05 07:39:12;;;;;;;5.27;2.93;;;3.70;99.90;;;;;;5114436;28;20180;-42
2023/12/05 07:41:39;;;;;;;4.40;3.10;;;3.70;99.90;;;;;;5115383;28;20561;-41
2023/12/05 07:44:06;;;;;;;3.97;2.50;;;3.80;99.90;;;;;;5094854;28;20478;-42
2023/12/05 07:46:32;;;;;;;3.47;2.43;;;3.90;99.90;;;;;;5114090;28;20413;-43
2023/12/05 07:48:58;;;;;;;3.23;2.40;;;4.00;99.90;;;;;;5113460;28;20417;-44
2023/12/05 07:51:23;;;;;;;4.20;2.53;;;4.20;30.90;;;;;;5114298;28;20493;-42
2023/12/05 07:53:50;;;;;;;3.63;2.67;;;4.50;1.00;;;;;;5114530;28;20261;-41
2023/12/05 07:56:16;;;;;;;4.00;2.50;;;4.70;1.00;;;;;;5113806;28;20241;-43
2023/12/05 07:58:42;;;;;;;3.67;2.50;;;5.00;1.00;;;;;;5111959;28;20495;-42
2023/12/05 08:01:08;;;;;;;4.20;3.03;;;5.00;1.00;;;;;;5112298;28;20425;-43
2023/12/05 08:03:34;;;;;;;4.37;2.73;;;5.20;99.90;;;;;;5112738;28;20474;-44
2023/12/05 08:06:01;;;;;;;3.93;2.03;;;5.40;99.90;;;;;;5113167;28;20603;-43
2023/12/05 08:08:30;;;;;;;4.23;2.60;;;5.60;46.30;;;;;;5112913;28;20681;-44
2023/12/05 08:10:56;;;;;;;5.93;2.77;;;5.90;1.00;;;;;;5114011;28;20673;-41
2023/12/05 08:13:22;;;;;;;4.23;2.33;;;6.00;99.90;;;;;;5112414;28;20468;-41
2023/12/05 08:15:48;;;;;;;3.90;2.27;;;6.10;99.90;;;;;;5113221;28;20429;-46
2023/12/05 08:18:13;;;;;;;3.37;2.40;;;6.10;99.90;;;;;;5113325;28;20263;-42
2023/12/05 08:20:39;;;;;;;4.00;2.77;;;6.10;99.90;;;;;;5113095;28;20244;-43
2023/12/05 08:23:05;;;;;;;3.17;2.13;;;6.30;17.80;;;;;;5114033;28;20176;-42
2023/12/05 08:25:31;;;;;;;2.67;2.00;;;6.40;1.00;;;;;;5117224;28;20421;-42
2023/12/05 08:27:56;;;;;;;3.20;1.87;;;6.80;94.50;;;;;;5117668;28;20184;-42
2023/12/05 08:30:22;;;;;;;3.00;2.13;;;7.10;1.00;;;;;;5114949;28;20191;-43
2023/12/05 08:32:47;;;;;;;3.70;1.97;;;7.40;24.80;;;;;;5115096;28;20256;-43
2023/12/05 08:35:13;;;;;;;3.77;1.80;;;7.30;1.00;;;;;;5115642;28;20621;-44
2023/12/05 08:37:39;;;;;;;2.70;1.97;;;7.50;99.90;;;;;;5116497;28;20187;-39
2023/12/05 08:40:06;;;;;;;5.10;2.20;;;8.00;99.90;;;;;;5116853;28;20263;-44
2023/12/05 08:42:32;;;;;;;3.37;2.17;;;8.50;99.90;;;;;;5115684;28;20437;-43
2023/12/05 08:44:57;;;;;;;7.50;1.80;;;9.30;99.90;;;;;;5079070;28;20574;-41
2023/12/05 08:47:23;;;;;;;2.80;1.70;;;9.60;1.00;;;;;;5096500;28;20437;-40
2023/12/05 08:49:49;;;;;;;2.57;1.80;;;9.40;1.00;;;;;;5115613;28;20301;-41
2023/12/05 08:52:14;;;;;;;3.30;1.90;;;9.90;1.00;;;;;;5114605;28;20482;-42
2023/12/05 08:54:40;;;;;;;2.70;1.60;;;9.50;99.90;;;;;;5114480;28;20440;-41
2023/12/05 08:57:05;;;;;;;4.40;2.00;;;9.70;1.00;;;;;;5114317;28;20191;-41
2023/12/05 08:59:31;;;;;;;3.87;1.87;;;10.30;1.00;;;;;;5114210;28;20206;-41
2023/12/05 09:01:57;;;;;;;3.50;1.87;;;11.00;99.90;;;;;;5114660;28;20191;-41
2023/12/05 09:04:22;;;;;;;2.80;1.83;;;11.60;99.90;;;;;;5116639;28;20334;-40
2023/12/05 09:06:48;;;;;;;3.27;1.73;;;11.70;16.60;;;;;;5114279;28;20270;-42
2023/12/05 09:09:13;;;;;;;2.97;1.93;;;10.90;67.70;;;;;;5116528;28;20234;-40
2023/12/05 09:11:39;;;;;;;2.10;1.47;;;10.70;99.90;;;;;;5116397;28;20184;-40
2023/12/05 09:14:05;;;;;;;2.87;1.83;;;10.50;99.90;;;;;;5097411;28;20296;-41
2023/12/05 09:16:32;;;;;;;3.73;1.67;;;9.50;99.90;;;;;;5078829;28;20501;-39
2023/12/05 09:18:57;;;;;;;3.57;2.20;;;8.70;1.00;;;;;;5114004;28;20425;-41
2023/12/05 09:21:23;;;;;;;4.17;2.27;;;8.40;99.90;;;;;;5096652;28;20425;-41
2023/12/05 09:23:49;;;;;;;4.50;2.77;;;7.90;18.60;;;;;;5097601;28;20187;-40
2023/12/05 09:26:15;;;;;;;6.60;2.23;;;7.60;1.00;;;;;;5116153;28;20692;-43
2023/12/05 09:28:41;;;;;;;4.63;2.50;;;7.20;1.00;;;;;;5115322;28;20180;-42
2023/12/05 09:31:06;;;;;;;3.60;2.30;;;6.90;1.00;;;;;;5114223;28;20413;-40
2023/12/05 09:33:32;;;;;;;3.30;1.90;;;6.70;1.00;;;;;;5113192;28;20214;-40
2023/12/05 09:35:59;;;;;;;4.70;2.30;;;6.60;1.00;;;;;;5097592;28;20221;-47
2023/12/05 09:38:24;;;;;;;3.10;1.60;;;6.60;1.00;;;;;;5116079;28;20377;-41
2023/12/05 09:40:51;;;;;;;2.97;2.37;;;6.50;51.00;;;;;;5114673;28;20902;-41
2023/12/05 09:43:21;;;;;;;2.37;1.77;;;6.50;1.00;;;;;;5115186;28;20184;-40
2023/12/05 09:45:47;;;;;;;2.93;1.57;;;6.40;99.90;;;;;;5098220;28;20422;-41
2023/12/05 09:48:17;;;;;;;4.80;2.10;;;6.40;99.90;;;;;;5098698;28;20769;-42
2023/12/05 09:50:43;;;;;;;4.10;1.97;;;6.60;1.00;;;;;;5099544;28;20531;-42
2023/12/05 09:53:09;;;;;;;3.83;2.00;;;6.80;1.00;;;;;;5115532;28;20559;-42
2023/12/05 09:55:35;;;;;;;3.23;2.07;;;6.90;1.00;;;;;;5097332;28;20279;-41
2023/12/05 09:58:02;;;;;;;2.53;1.97;;;7.40;99.90;;;;;;5115769;28;20482;-41
2023/12/05 10:00:28;;;;;;;3.60;2.10;;;8.00;1.00;;;;;;5114409;28;20787;-40
2023/12/05 10:02:54;;;;;;;3.63;2.30;;;7.80;1.00;;;;;;5111852;28;20642;-43
2023/12/05 10:05:21;;;;;;;2.40;1.90;;;7.30;1.00;;;;;;5112740;28;20421;-41
2023/12/05 10:07:47;;;;;;;4.60;2.23;;;7.10;99.90;;;;;;5113051;28;20509;-42
2023/12/05 10:10:14;;;;;;;4.37;2.10;;;7.30;1.00;;;;;;5110737;28;20672;-42
2023/12/05 10:12:40;;;;;;;3.47;2.70;;;8.60;99.90;;;;;;5111531;28;20914;-40
2023/12/05 10:15:07;;;;;;;4.97;2.37;;;9.80;1.00;;;;;;5078102;28;20661;-40
2023/12/05 10:17:33;;;;;;;3.30;1.93;;;10.30;99.90;;;;;;5095576;28;20433;-42
2023/12/05 10:19:59;;;;;;;4.97;1.97;;;10.80;99.90;;;;;;5094928;28;20770;-42
2023/12/05 10:22:30;;;;;;;3.03;2.10;;;10.50;99.90;;;;;;5112759;28;20452;-44
2023/12/05 10:24:56;;;;;;;3.00;2.20;;;9.80;99.90;;;;;;5096618;28;20500;-43
2023/12/05 10:27:21;;;;;;;2.67;1.80;;;9.00;1.00;;;;;;5115374;28;20926;-42
2023/12/05 10:29:47;;;;;;;2.10;1.73;;;8.30;99.90;;;;;;5097630;28;20219;-43
2023/12/05 10:32:13;;;;;;;4.73;1.90;;;7.90;1.00;;;;;;5115307;28;20233;-41
2023/12/05 10:34:50;;;;;;;2.10;1.60;;;7.50;1.00;;;;;;5095283;28;20318;-40
2023/12/05 10:37:23;;;;;;;2.20;1.80;;;7.60;99.90;;;;;;5111708;28;20413;-41
2023/12/05 10:39:52;;;;;;;3.63;1.90;;;7.90;99.90;;;;;;5108473;28;20445;-41
2023/12/05 10:42:19;;;;;;;4.40;1.87;;;8.30;99.90;;;;;;5110640;28;20468;-42
2023/12/05 10:44:45;;;;;;;1.73;1.50;;;8.60;1.00;;;;;;5109945;28;20428;-40
2023/12/05 10:47:11;;;;;;;2.03;1.73;;;8.90;99.90;;;;;;5090263;28;20499;-42
2023/12/05 10:49:38;;;;;;;2.90;1.83;;;9.40;99.90;;;;;;5110101;28;20176;-40
2023/12/05 10:52:04;;;;;;;6.50;2.37;;;10.00;1.00;;;;;;5093885;28;20513;-41
2023/12/05 10:54:30;;;;;;;1.93;1.30;;;11.10;99.90;;;;;;5095605;28;20498;-42
2023/12/05 10:56:59;;;;;;;4.07;2.00;;;11.60;99.90;;;;;;5114187;28;20449;-40
2023/12/05 10:59:28;;;;;;;3.53;1.53;;;11.50;99.90;;;;;;5113846;28;20498;-41
2023/12/05 11:01:58;;;;;;;2.20;1.63;;;12.10;99.90;;;;;;5113586;28;20421;-40
2023/12/05 11:04:27;;;;;;;3.07;1.63;;;12.60;27.60;;;;;;5114558;28;20986;-41
2023/12/05 11:06:53;;;;;;;2.43;1.50;;;12.10;28.00;;;;;;5115373;28;20887;-41
2023/12/05 11:09:19;;;;;;;1.53;1.40;;;11.50;42.20;;;;;;5097671;28;20433;-41
2023/12/05 11:11:51;;;;;;;2.90;1.47;;;12.00;99.90;;;;;;5096757;28;20757;-42
2023/12/05 11:14:17;;;;;;;2.60;1.50;;;12.30;1.00;;;;;;5114568;28;20509;-44
2023/12/05 11:16:49;;;;;;;3.10;1.70;;;12.40;1.00;;;;;;5097272;28;20729;-42
2023/12/05 11:19:33;;;;;;;2.83;1.67;;;13.00;1.00;;;;;;5097827;28;20417;-41
2023/12/05 11:22:09;;;;;;;1.90;1.40;;;13.20;1.00;;;;;;5114973;28;20443;-42
2023/12/05 11:24:59;;;;;;;2.97;1.50;;;13.70;91.60;;;;;;5112558;28;20778;-41
2023/12/05 11:28:16;;;;;;;3.07;1.50;;;14.30;1.00;;;;;;5114332;28;20447;-44
2023/12/05 11:30:53;;;;;;;2.67;1.53;;;13.90;1.00;;;;;;5070096;28;20695;-42
2023/12/05 11:33:57;;;;;;;2.83;1.50;;;13.60;1.00;;;;;;5110475;28;20499;-42
2023/12/05 11:36:51;;;;;;;2.50;1.30;;;13.80;1.00;;;;;;5007033;28;20446;-40
2023/12/05 11:39:17;;;;;;;3.10;1.80;;;14.20;1.00;;;;;;4991935;28;20422;-42
2023/12/05 11:42:07;;;;;;;5.27;1.33;;;14.60;1.00;;;;;;5056762;28;20434;-42
2023/12/05 11:44:36;;;;;;;3.23;1.77;;;16.00;1.00;;;;;;5110310;28;20453;-37
2023/12/05 11:47:06;;;;;;;2.43;1.00;;;16.10;1.00;;;;;;5112933;28;20414;-39
2023/12/05 11:49:55;;;;;;;4.73;1.53;;;16.90;21.60;;;;;;5112659;28;20433;-41
2023/12/05 11:52:22;;;;;;;5.17;2.13;;;18.10;1.00;;;;;;5096226;28;20548;-43
2023/12/05 11:54:48;;;;;;;2.43;1.47;;;19.20;1.00;;;;;;5114059;28;20409;-41
2023/12/05 11:57:18;;;;;;;6.67;1.97;;;20.20;1.00;;;;;;5079109;28;20688;-40
2023/12/05 11:59:46;;;;;;;6.40;1.50;;;21.80;1.00;;;;;;5118321;28;20425;-42
2023/12/05 12:02:14;;;;;;;5.33;2.20;;;22.30;1.00;;;;;;5099922;28;20425;-43
2023/12/05 12:04:40;;;;;;;8.70;2.40;;;22.40;1.00;;;;;;5118863;28;20437;-39
2023/12/05 12:07:05;;;;;;;13.57;3.13;;;22.90;1.00;;;;;;5117568;28;21032;-41
2023/12/05 12:09:41;;;;;;;9.87;2.70;;;23.60;1.00;;;;;;5117931;28;20187;-43
2023/12/05 12:12:07;;;;;;;3.60;1.80;;;24.90;1.00;;;;;;5114904;28;20561;-42
2023/12/05 12:14:33;;;;;;;3.63;1.97;;;25.10;1.00;;;;;;5095464;28;20867;-42
2023/12/05 12:17:00;;;;;;;4.03;2.07;;;26.20;1.00;;;;;;5076826;28;20425;-41
2023/12/05 12:19:26;;;;;;;3.00;1.60;;;27.20;9.00;;;;;;5093588;28;20430;-42
2023/12/05 12:21:51;;;;;;;4.93;1.90;;;27.80;1.00;;;;;;5075570;28;20808;-41
2023/12/05 12:24:25;;;;;;;5.37;2.00;;;28.50;1.00;;;;;;5093933;28;20457;-39
2023/12/05 12:26:54;;;;;;;5.50;2.50;;;29.70;1.00;;;;;;5094915;28;20267;-39
2023/12/05 12:29:21;;;;;;;7.47;2.03;;;30.30;1.00;;;;;;5094687;28;20687;-38
2023/12/05 12:31:48;;;;;;;4.63;1.80;;;30.80;1.00;;;;;;5096717;28;20396;-42
2023/12/05 12:34:32;;;;;;;2.30;1.37;;;31.30;1.00;;;;;;5096711;28;20503;-37
2023/12/05 12:36:58;;;;;;;3.50;1.70;;;31.20;1.00;;;;;;5077313;28;20430;-49
2023/12/05 12:39:25;;;;;;;3.23;1.40;;;31.80;1.00;;;;;;5076382;28;20447;-39
2023/12/05 12:41:51;;;;;;;4.97;1.53;;;32.30;1.00;;;;;;5060906;28;20401;-41
2023/12/05 12:44:18;;;;;;;2.20;1.30;;;32.40;1.00;;;;;;5095505;28;20480;-39
2023/12/05 12:46:44;;;;;;;5.43;1.47;;;31.70;1.00;;;;;;5093689;28;20382;-39
2023/12/05 12:49:10;;;;;;;2.20;1.33;;;31.80;1.00;;;;;;5092538;28;21044;-43
2023/12/05 12:51:38;;;;;;;3.20;1.50;;;32.30;1.00;;;;;;5076006;28;20396;-39
2023/12/05 12:54:05;;;;;;;3.30;1.77;;;32.20;1.00;;;;;;5075497;28;20426;-40
2023/12/05 12:56:34;;;;;;;2.43;1.30;;;32.40;1.00;;;;;;5095090;28;20410;-39
2023/12/05 12:59:03;;;;;;;2.17;1.40;;;32.60;1.00;;;;;;5094168;28;20475;-40
2023/12/05 13:01:32;;;;;;;2.53;1.70;;;33.00;1.00;;;;;;5077606;28;20401;-40
2023/12/05 13:03:58;;;;;;;2.43;1.30;;;33.20;1.00;;;;;;5094845;28;20468;-40